This is the latest recevied weather packets stored in our database for station/object I5EKX-13. If no packets are shown the sender has not sent any weather packets the latest 10 day(s).
| Time | Temp. | Humidity | Pressure | Rain* | Wind** | Luminosity | Snow |
|---|---|---|---|---|---|---|---|
| 1777431365 | 8.89° C | 78% | 1010.6 hPa | - | - | - | - |
| 1777430162 | 8.89° C | 78% | 1010.7 hPa | - | - | - | - |
| 1777428958 | 8.89° C | 80% | 1010.7 hPa | - | - | - | - |
| 1777427754 | 9.44° C | 79% | 1010.8 hPa | - | - | - | - |
| 1777426550 | 9.44° C | 80% | 1010.5 hPa | - | - | - | - |
| 1777425346 | 9.44° C | 81% | 1010.5 hPa | - | - | - | - |
| 1777424142 | 10° C | 81% | 1010.6 hPa | - | - | - | - |
| 1777422938 | 10.56° C | 82% | 1010.6 hPa | - | - | - | - |
| 1777421734 | 10.56° C | 82% | 1010.7 hPa | - | - | - | - |
| 1777420530 | 10.56° C | 84% | 1010.7 hPa | - | - | - | - |
| 1777419326 | 11.11° C | 82% | 1010.6 hPa | - | - | - | - |
| 1777418122 | 11.11° C | 81% | 1010.6 hPa | - | - | - | - |
| 1777416918 | 10.56° C | 83% | 1010.5 hPa | - | - | - | - |
| 1777415714 | 10.56° C | 81% | 1010.5 hPa | - | - | - | - |
| 1777414510 | 11.11° C | 82% | 1010.5 hPa | - | - | - | - |
| 1777413306 | 11.67° C | 82% | 1010.6 hPa | - | - | - | - |
| 1777412102 | 11.11° C | 82% | 1010.5 hPa | - | - | - | - |
| 1777410898 | 11.67° C | 80% | 1010.6 hPa | - | - | - | - |
| 1777409694 | 12.22° C | 78% | 1010.7 hPa | - | - | - | - |
| 1777408497 | 11.67° C | 81% | 1010.8 hPa | - | - | - | - |
| 1777407286 | 12.22° C | 79% | 1010.8 hPa | - | - | - | - |
| 1777406082 | 12.22° C | 80% | 1010.9 hPa | - | - | - | - |
| 1777404878 | 12.78° C | 80% | 1010.8 hPa | - | - | - | - |
| 1777403675 | 13.89° C | 79% | 1010.6 hPa | - | - | - | - |
| 1777402470 | 14.44° C | 78% | 1010.3 hPa | - | - | - | - |
* Rain since midnight (hover to see other rain measurements)
** Current wind speed in m/s (hover to see current wind gust speed)